Terminal Aerodrome Forecast
Issued by NWS

Home | Current Version | Previous Version | Text Only | Print | Product List | Glossary Off
Versions: 1 2 3 4 5 6 7 8 9 10 11 12 13

000
FTUS43 KICT 211130
TAFSLN
TAF
KSLN 211130Z 2112/2212 22006KT P6SM FEW150
     FM211800 16005KT P6SM FEW200
     FM220400 02007KT P6SM BKN020=

USA.gov is the U.S. government's official web portal to all federal, state and local government web resources and services.